RYR0599 LEMI-EGHH
Flight info
| Callsign | RYR0599 |
|---|---|
| Flight time | 2h 16m |
| Altitude | 38000 |
| Route | ALT N851 MITOS N608 COMPI Y90 USKAR N863 GIROM DCT AGN DCT SECHE DCT UVELI DCT CNA/N0436F360 DCT MANAK UY110 ORIST Y110 THRED |
| Aircraft | B38M/M-SDE1FGHILORVWXY/HB1 |
Departure
| Time | 2026-04-21 10:38 |
|---|---|
| Airport | Region of Murcia International Airport (LEMI) |
Arrival
| Time | 2026-04-21 12:55 |
|---|---|
| Airport | Bournemouth Airport (EGHH) |
| Time | Latitude | Longitude | Altitude | Speed | Heading |
|---|---|---|---|---|---|
| 2026-04-21 10:28 | 37.80325 | -1.13159 | 652 ft | 0 kts | 316° |
| 2026-04-21 10:30 | 37.80307 | -1.13137 | 654 ft | 4 kts | 316° |
| 2026-04-21 10:30 | 37.80289 | -1.13114 | 652 ft | 3 kts | 310° |
| 2026-04-21 10:30 | 37.80279 | -1.13096 | 652 ft | 2 kts | 278° |
| 2026-04-21 10:30 | 37.80281 | -1.13083 | 655 ft | 2 kts | 223° |
| 2026-04-21 10:31 | 37.80289 | -1.13073 | 654 ft | 1 kts | 220° |
| 2026-04-21 10:34 | 37.80282 | -1.13080 | 653 ft | 5 kts | 220° |
| 2026-04-21 10:34 | 37.80239 | -1.13126 | 654 ft | 10 kts | 220° |
| 2026-04-21 10:34 | 37.80172 | -1.13131 | 653 ft | 11 kts | 148° |
| 2026-04-21 10:34 | 37.80098 | -1.13099 | 655 ft | 12 kts | 197° |
| 2026-04-21 10:35 | 37.80027 | -1.13166 | 652 ft | 11 kts | 223° |
| 2026-04-21 10:35 | 37.79968 | -1.13236 | 652 ft | 13 kts | 224° |
| 2026-04-21 10:35 | 37.79900 | -1.13320 | 652 ft | 14 kts | 226° |
| 2026-04-21 10:35 | 37.79827 | -1.13415 | 652 ft | 16 kts | 225° |
| 2026-04-21 10:36 | 37.79742 | -1.13524 | 654 ft | 18 kts | 225° |
| 2026-04-21 10:36 | 37.79655 | -1.13637 | 652 ft | 17 kts | 225° |
| 2026-04-21 10:36 | 37.79575 | -1.13739 | 654 ft | 12 kts | 225° |
| 2026-04-21 10:36 | 37.79498 | -1.13767 | 652 ft | 13 kts | 153° |
| 2026-04-21 10:37 | 37.79438 | -1.13702 | 653 ft | 10 kts | 135° |
| 2026-04-21 10:37 | 37.79424 | -1.13629 | 650 ft | 7 kts | 56° |
| 2026-04-21 10:37 | 37.79439 | -1.13608 | 650 ft | 0 kts | 46° |
| 2026-04-21 10:38 | 37.79490 | -1.13539 | 650 ft | 39 kts | 46° |
| 2026-04-21 10:38 | 37.79869 | -1.13050 | 651 ft | 115 kts | 45° |
| 2026-04-21 10:38 | 37.80576 | -1.12139 | 764 ft | 166 kts | 46° |
| 2026-04-21 10:38 | 37.81432 | -1.11018 | 1404 ft | 177 kts | 46° |
| 2026-04-21 10:39 | 37.82309 | -1.09975 | 2425 ft | 172 kts | 45° |
| 2026-04-21 10:39 | 37.83202 | -1.08914 | 3208 ft | 182 kts | 44° |
| 2026-04-21 10:39 | 37.84169 | -1.07768 | 3838 ft | 200 kts | 45° |
| 2026-04-21 10:39 | 37.85223 | -1.06508 | 4522 ft | 217 kts | 44° |
| 2026-04-21 10:40 | 37.86375 | -1.05150 | 5209 ft | 237 kts | 43° |
| 2026-04-21 10:40 | 37.87634 | -1.03663 | 5817 ft | 258 kts | 44° |
| 2026-04-21 10:40 | 37.88997 | -1.02046 | 6481 ft | 277 kts | 44° |
| 2026-04-21 10:40 | 37.90426 | -1.00353 | 7384 ft | 282 kts | 43° |
| 2026-04-21 10:41 | 37.91858 | -0.98653 | 8453 ft | 284 kts | 43° |
| 2026-04-21 10:41 | 37.93325 | -0.96911 | 9352 ft | 294 kts | 43° |
| 2026-04-21 10:41 | 37.94821 | -0.95131 | 10305 ft | 298 kts | 43° |
| 2026-04-21 10:41 | 37.96369 | -0.93289 | 10957 ft | 312 kts | 42° |
| 2026-04-21 10:42 | 37.97993 | -0.91355 | 11558 ft | 327 kts | 43° |
| 2026-04-21 10:42 | 37.99678 | -0.89347 | 12255 ft | 337 kts | 42° |
| 2026-04-21 10:42 | 38.01385 | -0.87312 | 13219 ft | 338 kts | 43° |
| 2026-04-21 10:42 | 38.03109 | -0.85255 | 13977 ft | 345 kts | 42° |
| 2026-04-21 10:43 | 38.04863 | -0.83162 | 14748 ft | 348 kts | 42° |
| 2026-04-21 10:43 | 38.06622 | -0.81061 | 15468 ft | 353 kts | 42° |
| 2026-04-21 10:43 | 38.08415 | -0.78916 | 16174 ft | 358 kts | 42° |
| 2026-04-21 10:43 | 38.10240 | -0.76733 | 16900 ft | 362 kts | 42° |
| 2026-04-21 10:44 | 38.12091 | -0.74531 | 17598 ft | 367 kts | 42° |
| 2026-04-21 10:44 | 38.13961 | -0.72314 | 18274 ft | 371 kts | 42° |
| 2026-04-21 10:44 | 38.15862 | -0.70059 | 18858 ft | 375 kts | 42° |
| 2026-04-21 10:44 | 38.17779 | -0.67783 | 19464 ft | 378 kts | 42° |
| 2026-04-21 10:45 | 38.19702 | -0.65497 | 20050 ft | 381 kts | 41° |
| 2026-04-21 10:45 | 38.21654 | -0.63174 | 20615 ft | 385 kts | 41° |
| 2026-04-21 10:45 | 38.23613 | -0.60842 | 21178 ft | 388 kts | 41° |
| 2026-04-21 10:45 | 38.25582 | -0.58471 | 21734 ft | 392 kts | 45° |
| 2026-04-21 10:46 | 38.27148 | -0.55630 | 22295 ft | 397 kts | 64° |
| 2026-04-21 10:46 | 38.28240 | -0.52381 | 22830 ft | 401 kts | 66° |
| 2026-04-21 10:46 | 38.29333 | -0.49089 | 23298 ft | 405 kts | 66° |
| 2026-04-21 10:46 | 38.30414 | -0.45773 | 23793 ft | 408 kts | 66° |
| 2026-04-21 10:47 | 38.31497 | -0.42408 | 24207 ft | 411 kts | 66° |
| 2026-04-21 10:47 | 38.32579 | -0.39026 | 24642 ft | 414 kts | 67° |
| 2026-04-21 10:47 | 38.33661 | -0.35634 | 25069 ft | 416 kts | 67° |
| 2026-04-21 10:47 | 38.34757 | -0.32191 | 25493 ft | 419 kts | 67° |
| 2026-04-21 10:48 | 38.35856 | -0.28752 | 25912 ft | 421 kts | 66° |
| 2026-04-21 10:48 | 38.37009 | -0.25300 | 26320 ft | 424 kts | 66° |
| 2026-04-21 10:48 | 38.38147 | -0.21884 | 26714 ft | 426 kts | 66° |
| 2026-04-21 10:48 | 38.39318 | -0.18356 | 27111 ft | 429 kts | 66° |
| 2026-04-21 10:49 | 38.40471 | -0.14878 | 27503 ft | 431 kts | 66° |
| 2026-04-21 10:49 | 38.41652 | -0.11308 | 27892 ft | 434 kts | 66° |
| 2026-04-21 10:49 | 38.42997 | -0.07869 | 28253 ft | 434 kts | 53° |
| 2026-04-21 10:49 | 38.44999 | -0.05019 | 28637 ft | 431 kts | 36° |
| 2026-04-21 10:50 | 38.47496 | -0.03024 | 28918 ft | 430 kts | 20° |
| 2026-04-21 10:50 | 38.50332 | -0.01940 | 29255 ft | 426 kts | 5° |
| 2026-04-21 10:50 | 38.53287 | -0.01609 | 29577 ft | 427 kts | 0° |
| 2026-04-21 10:50 | 38.56269 | -0.01438 | 29895 ft | 429 kts | 359° |
| 2026-04-21 10:51 | 38.59258 | -0.01345 | 30233 ft | 431 kts | 358° |
| 2026-04-21 10:51 | 38.62257 | -0.01292 | 30522 ft | 432 kts | 358° |
| 2026-04-21 10:51 | 38.65277 | -0.01256 | 30829 ft | 434 kts | 357° |
| 2026-04-21 10:51 | 38.68302 | -0.01229 | 31116 ft | 436 kts | 357° |
| 2026-04-21 10:52 | 38.71347 | -0.01204 | 31414 ft | 438 kts | 357° |
| 2026-04-21 10:52 | 38.74399 | -0.01182 | 31719 ft | 440 kts | 357° |
| 2026-04-21 10:52 | 38.77461 | -0.01161 | 32009 ft | 442 kts | 357° |
| 2026-04-21 10:52 | 38.80542 | -0.01140 | 32281 ft | 444 kts | 357° |
| 2026-04-21 10:53 | 38.83638 | -0.01120 | 32568 ft | 445 kts | 357° |
| 2026-04-21 10:53 | 38.86734 | -0.01099 | 32852 ft | 447 kts | 357° |
| 2026-04-21 10:53 | 38.89856 | -0.01078 | 33143 ft | 449 kts | 357° |
| 2026-04-21 10:53 | 38.92974 | -0.01058 | 33417 ft | 450 kts | 357° |
| 2026-04-21 10:54 | 38.96109 | -0.01037 | 33806 ft | 449 kts | 357° |
| 2026-04-21 10:54 | 38.99229 | -0.01016 | 34184 ft | 448 kts | 357° |
| 2026-04-21 10:54 | 39.02339 | -0.00996 | 34482 ft | 447 kts | 357° |
| 2026-04-21 10:54 | 39.05453 | -0.00975 | 34759 ft | 447 kts | 356° |
| 2026-04-21 10:55 | 39.08524 | -0.00955 | 35032 ft | 447 kts | 356° |
| 2026-04-21 10:55 | 39.11630 | -0.00934 | 35320 ft | 447 kts | 356° |
| 2026-04-21 10:55 | 39.14743 | -0.00914 | 35584 ft | 447 kts | 356° |
| 2026-04-21 10:55 | 39.17866 | -0.00893 | 35844 ft | 447 kts | 356° |
| 2026-04-21 10:56 | 39.20961 | -0.00872 | 36094 ft | 447 kts | 356° |
| 2026-04-21 10:56 | 39.24075 | -0.00851 | 36349 ft | 447 kts | 356° |
| 2026-04-21 10:56 | 39.27185 | -0.00831 | 36585 ft | 447 kts | 356° |
| 2026-04-21 10:56 | 39.30289 | -0.00810 | 36811 ft | 447 kts | 356° |
| 2026-04-21 10:57 | 39.33388 | -0.00784 | 37040 ft | 447 kts | 358° |
| 2026-04-21 10:57 | 39.36478 | -0.00199 | 37252 ft | 452 kts | 13° |
| 2026-04-21 10:57 | 39.39502 | 0.00925 | 37502 ft | 452 kts | 11° |
| 2026-04-21 10:57 | 39.42550 | 0.02003 | 37603 ft | 454 kts | 12° |
| 2026-04-21 10:58 | 39.45589 | 0.03103 | 37810 ft | 454 kts | 12° |
| 2026-04-21 10:58 | 39.48629 | 0.04220 | 37943 ft | 454 kts | 12° |
| 2026-04-21 10:58 | 39.51672 | 0.05344 | 37935 ft | 453 kts | 12° |
| 2026-04-21 10:59 | 39.57728 | 0.07585 | 37939 ft | 453 kts | 12° |
| 2026-04-21 10:59 | 39.63774 | 0.09828 | 37939 ft | 452 kts | 12° |
| 2026-04-21 11:00 | 39.69831 | 0.12078 | 37937 ft | 452 kts | 12° |
| 2026-04-21 11:00 | 39.75877 | 0.14329 | 37941 ft | 452 kts | 12° |
| 2026-04-21 11:01 | 39.81889 | 0.16571 | 37941 ft | 452 kts | 12° |
| 2026-04-21 11:01 | 39.87925 | 0.18826 | 37940 ft | 452 kts | 12° |
| 2026-04-21 11:02 | 39.96991 | 0.22221 | 37951 ft | 452 kts | 12° |
| 2026-04-21 11:02 | 40.03031 | 0.24486 | 37953 ft | 451 kts | 12° |
| 2026-04-21 11:03 | 40.09069 | 0.26753 | 37956 ft | 451 kts | 12° |
| 2026-04-21 11:03 | 40.15097 | 0.29021 | 37958 ft | 451 kts | 12° |
| 2026-04-21 11:04 | 40.21139 | 0.31297 | 37960 ft | 451 kts | 12° |
| 2026-04-21 11:04 | 40.27133 | 0.33560 | 37952 ft | 451 kts | 12° |
| 2026-04-21 11:05 | 40.33197 | 0.35857 | 37954 ft | 451 kts | 12° |
| 2026-04-21 11:05 | 40.39223 | 0.38146 | 37963 ft | 451 kts | 12° |
| 2026-04-21 11:06 | 40.45213 | 0.40424 | 37942 ft | 451 kts | 12° |
| 2026-04-21 11:06 | 40.51241 | 0.42722 | 37953 ft | 451 kts | 12° |
| 2026-04-21 11:07 | 40.57259 | 0.45021 | 37947 ft | 450 kts | 12° |
| 2026-04-21 11:07 | 40.63267 | 0.47320 | 37939 ft | 450 kts | 12° |
| 2026-04-21 11:08 | 40.69292 | 0.49629 | 37938 ft | 450 kts | 12° |
| 2026-04-21 11:08 | 40.75298 | 0.51936 | 37942 ft | 450 kts | 12° |
| 2026-04-21 11:09 | 40.81317 | 0.54252 | 37950 ft | 450 kts | 12° |
| 2026-04-21 11:09 | 40.87329 | 0.56569 | 37943 ft | 450 kts | 12° |
| 2026-04-21 11:10 | 40.93337 | 0.58890 | 37931 ft | 450 kts | 12° |
| 2026-04-21 11:10 | 40.99357 | 0.61219 | 37940 ft | 450 kts | 12° |
| 2026-04-21 11:11 | 41.05367 | 0.63549 | 37934 ft | 450 kts | 12° |
| 2026-04-21 11:11 | 41.11375 | 0.65882 | 37937 ft | 450 kts | 12° |
| 2026-04-21 11:12 | 41.17378 | 0.68219 | 37935 ft | 450 kts | 13° |
| 2026-04-21 11:12 | 41.23361 | 0.70551 | 37935 ft | 450 kts | 12° |
| 2026-04-21 11:13 | 41.29369 | 0.72897 | 37936 ft | 450 kts | 12° |
| 2026-04-21 11:13 | 41.35375 | 0.75248 | 37929 ft | 450 kts | 12° |
| 2026-04-21 11:14 | 41.41381 | 0.77602 | 37927 ft | 450 kts | 12° |
| 2026-04-21 11:14 | 41.47384 | 0.79960 | 37931 ft | 450 kts | 12° |
| 2026-04-21 11:15 | 41.53386 | 0.82322 | 37931 ft | 450 kts | 12° |
| 2026-04-21 11:15 | 41.59347 | 0.84673 | 37931 ft | 450 kts | 12° |
| 2026-04-21 11:16 | 41.64367 | 0.86656 | 37928 ft | 450 kts | 12° |
| 2026-04-21 11:16 | 41.70369 | 0.89031 | 37932 ft | 450 kts | 12° |
| 2026-04-21 11:17 | 41.77342 | 0.91797 | 37930 ft | 450 kts | 12° |
| 2026-04-21 11:17 | 41.83349 | 0.94184 | 37925 ft | 450 kts | 12° |
| 2026-04-21 11:18 | 41.88337 | 0.96170 | 37922 ft | 450 kts | 13° |
| 2026-04-21 11:18 | 41.94339 | 0.98563 | 37930 ft | 450 kts | 12° |
| 2026-04-21 11:19 | 42.00348 | 1.00965 | 37920 ft | 450 kts | 12° |
| 2026-04-21 11:19 | 42.06351 | 1.03368 | 37926 ft | 451 kts | 12° |
| 2026-04-21 11:20 | 42.12362 | 1.05736 | 37917 ft | 448 kts | 8° |
| 2026-04-21 11:20 | 42.15419 | 1.06109 | 37924 ft | 437 kts | 353° |
| 2026-04-21 11:20 | 42.18473 | 1.05941 | 37915 ft | 439 kts | 353° |
| 2026-04-21 11:21 | 42.24560 | 1.05446 | 37962 ft | 439 kts | 352° |
| 2026-04-21 11:21 | 42.30642 | 1.04826 | 37965 ft | 438 kts | 351° |
| 2026-04-21 11:22 | 42.36736 | 1.04172 | 37972 ft | 439 kts | 351° |
| 2026-04-21 11:22 | 42.42818 | 1.03513 | 37976 ft | 439 kts | 351° |
| 2026-04-21 11:23 | 42.48901 | 1.02852 | 37967 ft | 439 kts | 351° |
| 2026-04-21 11:23 | 42.54990 | 1.02188 | 37977 ft | 438 kts | 351° |
| 2026-04-21 11:24 | 42.61070 | 1.01524 | 37925 ft | 438 kts | 351° |
| 2026-04-21 11:24 | 42.67108 | 1.00863 | 37961 ft | 438 kts | 351° |
| 2026-04-21 11:25 | 42.73188 | 1.00196 | 37959 ft | 438 kts | 351° |
| 2026-04-21 11:25 | 42.79266 | 0.99529 | 37948 ft | 438 kts | 351° |
| 2026-04-21 11:26 | 42.85339 | 0.98861 | 37924 ft | 438 kts | 351° |
| 2026-04-21 11:26 | 42.91412 | 0.98192 | 37935 ft | 438 kts | 351° |
| 2026-04-21 11:27 | 42.97483 | 0.97523 | 37904 ft | 438 kts | 351° |
| 2026-04-21 11:27 | 43.03547 | 0.96853 | 37929 ft | 437 kts | 351° |
| 2026-04-21 11:28 | 43.09611 | 0.96181 | 37900 ft | 437 kts | 351° |
| 2026-04-21 11:28 | 43.15644 | 0.95512 | 37900 ft | 437 kts | 351° |
| 2026-04-21 11:29 | 43.21705 | 0.94838 | 37890 ft | 437 kts | 351° |
| 2026-04-21 11:29 | 43.27768 | 0.94162 | 37891 ft | 437 kts | 351° |
| 2026-04-21 11:30 | 43.33835 | 0.93485 | 37891 ft | 437 kts | 351° |
| 2026-04-21 11:30 | 43.39899 | 0.92807 | 37892 ft | 437 kts | 351° |
| 2026-04-21 11:31 | 43.45956 | 0.92128 | 37895 ft | 436 kts | 351° |
| 2026-04-21 11:31 | 43.52007 | 0.91448 | 37897 ft | 436 kts | 351° |
| 2026-04-21 11:32 | 43.58053 | 0.90768 | 37895 ft | 436 kts | 351° |
| 2026-04-21 11:32 | 43.64112 | 0.90085 | 37900 ft | 436 kts | 351° |
| 2026-04-21 11:33 | 43.70147 | 0.89402 | 37896 ft | 436 kts | 351° |
| 2026-04-21 11:33 | 43.76199 | 0.88717 | 37897 ft | 436 kts | 351° |
| 2026-04-21 11:34 | 43.82205 | 0.88036 | 37892 ft | 436 kts | 351° |
| 2026-04-21 11:34 | 43.88203 | 0.87089 | 37880 ft | 428 kts | 338° |
| 2026-04-21 11:35 | 43.93696 | 0.83995 | 37886 ft | 424 kts | 332° |
| 2026-04-21 11:35 | 43.99049 | 0.80661 | 37899 ft | 424 kts | 331° |
| 2026-04-21 11:36 | 44.04399 | 0.77229 | 37908 ft | 424 kts | 330° |
| 2026-04-21 11:36 | 44.09736 | 0.73778 | 37913 ft | 423 kts | 330° |
| 2026-04-21 11:37 | 44.15078 | 0.70314 | 37914 ft | 423 kts | 330° |
| 2026-04-21 11:37 | 44.20416 | 0.66844 | 37914 ft | 423 kts | 330° |
| 2026-04-21 11:38 | 44.25753 | 0.63370 | 37913 ft | 423 kts | 330° |
| 2026-04-21 11:38 | 44.31091 | 0.59888 | 37912 ft | 423 kts | 330° |
| 2026-04-21 11:39 | 44.36424 | 0.56401 | 37907 ft | 423 kts | 330° |
| 2026-04-21 11:39 | 44.41750 | 0.52913 | 37908 ft | 423 kts | 330° |
| 2026-04-21 11:40 | 44.47071 | 0.49396 | 37909 ft | 423 kts | 330° |
| 2026-04-21 11:40 | 44.52380 | 0.45877 | 37909 ft | 422 kts | 330° |
| 2026-04-21 11:41 | 44.57658 | 0.42372 | 37911 ft | 422 kts | 330° |
| 2026-04-21 11:41 | 44.62958 | 0.38845 | 37913 ft | 422 kts | 330° |
| 2026-04-21 11:42 | 44.68255 | 0.35313 | 37913 ft | 422 kts | 330° |
| 2026-04-21 11:42 | 44.73557 | 0.31771 | 37914 ft | 422 kts | 330° |
| 2026-04-21 11:43 | 44.78860 | 0.28221 | 37919 ft | 422 kts | 330° |
| 2026-04-21 11:43 | 44.84154 | 0.24669 | 37915 ft | 422 kts | 330° |
| 2026-04-21 11:44 | 44.89450 | 0.21110 | 37915 ft | 422 kts | 330° |
| 2026-04-21 11:44 | 44.94749 | 0.17540 | 37918 ft | 421 kts | 330° |
| 2026-04-21 11:45 | 45.00039 | 0.13969 | 37936 ft | 421 kts | 330° |
| 2026-04-21 11:45 | 45.05322 | 0.10395 | 37931 ft | 421 kts | 330° |
| 2026-04-21 11:46 | 45.10599 | 0.06818 | 37934 ft | 421 kts | 330° |
| 2026-04-21 11:46 | 45.15859 | 0.03244 | 37945 ft | 421 kts | 330° |
| 2026-04-21 11:47 | 45.21141 | -0.00351 | 37953 ft | 421 kts | 330° |
| 2026-04-21 11:47 | 45.26416 | -0.03950 | 37938 ft | 421 kts | 330° |
| 2026-04-21 11:48 | 45.31702 | -0.07564 | 37940 ft | 421 kts | 330° |
| 2026-04-21 11:48 | 45.36979 | -0.11179 | 37947 ft | 421 kts | 330° |
| 2026-04-21 11:49 | 45.42261 | -0.14805 | 37954 ft | 422 kts | 330° |
| 2026-04-21 11:49 | 45.47540 | -0.18436 | 37962 ft | 422 kts | 330° |
| 2026-04-21 11:50 | 45.52833 | -0.22085 | 37850 ft | 420 kts | 330° |
| 2026-04-21 11:50 | 45.55438 | -0.23883 | 37608 ft | 413 kts | 330° |
| 2026-04-21 11:50 | 45.58009 | -0.25660 | 37161 ft | 408 kts | 330° |
| 2026-04-21 11:51 | 45.60548 | -0.27416 | 36675 ft | 405 kts | 330° |
| 2026-04-21 11:51 | 45.63073 | -0.29164 | 36215 ft | 400 kts | 330° |
| 2026-04-21 11:51 | 45.65543 | -0.30916 | 35908 ft | 391 kts | 325° |
| 2026-04-21 11:51 | 45.67685 | -0.33153 | 35795 ft | 372 kts | 317° |
| 2026-04-21 11:52 | 45.71738 | -0.37683 | 35615 ft | 379 kts | 318° |
| 2026-04-21 11:52 | 45.73832 | -0.40034 | 35444 ft | 385 kts | 318° |
| 2026-04-21 11:52 | 45.75940 | -0.42409 | 35306 ft | 385 kts | 318° |
| 2026-04-21 11:53 | 45.78041 | -0.44779 | 35164 ft | 384 kts | 318° |
| 2026-04-21 11:53 | 45.80132 | -0.47143 | 35015 ft | 383 kts | 318° |
| 2026-04-21 11:53 | 45.82224 | -0.49509 | 34873 ft | 382 kts | 318° |
| 2026-04-21 11:53 | 45.84307 | -0.51868 | 34725 ft | 381 kts | 318° |
| 2026-04-21 11:54 | 45.86382 | -0.54221 | 34581 ft | 380 kts | 318° |
| 2026-04-21 11:54 | 45.88450 | -0.56567 | 34426 ft | 379 kts | 318° |
| 2026-04-21 11:54 | 45.90520 | -0.58919 | 34289 ft | 377 kts | 318° |
| 2026-04-21 11:54 | 45.92572 | -0.61252 | 34156 ft | 379 kts | 318° |
| 2026-04-21 11:55 | 45.96783 | -0.66047 | 34123 ft | 394 kts | 318° |
| 2026-04-21 11:55 | 46.01164 | -0.71046 | 33973 ft | 409 kts | 318° |
| 2026-04-21 11:56 | 46.05680 | -0.76209 | 33985 ft | 418 kts | 318° |
| 2026-04-21 11:56 | 46.10236 | -0.81430 | 33984 ft | 418 kts | 318° |
| 2026-04-21 11:57 | 46.14790 | -0.86659 | 33783 ft | 418 kts | 318° |
| 2026-04-21 11:57 | 46.17057 | -0.89267 | 33577 ft | 418 kts | 318° |
| 2026-04-21 11:57 | 46.19314 | -0.91865 | 33455 ft | 415 kts | 318° |
| 2026-04-21 11:58 | 46.21554 | -0.94448 | 33170 ft | 418 kts | 318° |
| 2026-04-21 11:58 | 46.23850 | -0.97098 | 32916 ft | 419 kts | 318° |
| 2026-04-21 11:58 | 46.26104 | -0.99703 | 32657 ft | 420 kts | 318° |
| 2026-04-21 11:58 | 46.28409 | -1.02369 | 32436 ft | 420 kts | 318° |
| 2026-04-21 11:59 | 46.30692 | -1.05013 | 32180 ft | 421 kts | 318° |
| 2026-04-21 11:59 | 46.32978 | -1.07663 | 31927 ft | 421 kts | 318° |
| 2026-04-21 11:59 | 46.35266 | -1.10318 | 31710 ft | 422 kts | 318° |
| 2026-04-21 11:59 | 46.37559 | -1.12983 | 31467 ft | 422 kts | 318° |
| 2026-04-21 12:00 | 46.39848 | -1.15645 | 31229 ft | 423 kts | 318° |
| 2026-04-21 12:00 | 46.42113 | -1.18283 | 31006 ft | 423 kts | 318° |
| 2026-04-21 12:00 | 46.44413 | -1.20964 | 30776 ft | 424 kts | 318° |
| 2026-04-21 12:00 | 46.46707 | -1.23642 | 30553 ft | 424 kts | 318° |
| 2026-04-21 12:01 | 46.49010 | -1.26332 | 30347 ft | 425 kts | 318° |
| 2026-04-21 12:01 | 46.51305 | -1.29016 | 30106 ft | 425 kts | 318° |
| 2026-04-21 12:01 | 46.53616 | -1.31722 | 29847 ft | 426 kts | 318° |
| 2026-04-21 12:01 | 46.55912 | -1.34414 | 29594 ft | 426 kts | 318° |
| 2026-04-21 12:02 | 46.58229 | -1.37132 | 29320 ft | 427 kts | 318° |
| 2026-04-21 12:02 | 46.63373 | -1.41507 | 28788 ft | 433 kts | 330° |
| 2026-04-21 12:02 | 46.66074 | -1.43442 | 28525 ft | 434 kts | 330° |
| 2026-04-21 12:03 | 46.68789 | -1.45374 | 28272 ft | 435 kts | 330° |
| 2026-04-21 12:03 | 46.71510 | -1.47307 | 28023 ft | 435 kts | 330° |
| 2026-04-21 12:03 | 46.74206 | -1.49222 | 27772 ft | 436 kts | 330° |
| 2026-04-21 12:03 | 46.76961 | -1.51180 | 27513 ft | 436 kts | 330° |
| 2026-04-21 12:04 | 46.79695 | -1.53124 | 27262 ft | 437 kts | 330° |
| 2026-04-21 12:04 | 46.82423 | -1.55068 | 27015 ft | 438 kts | 330° |
| 2026-04-21 12:04 | 46.85175 | -1.57021 | 26763 ft | 439 kts | 332° |
| 2026-04-21 12:04 | 46.88104 | -1.58328 | 26505 ft | 447 kts | 348° |
| 2026-04-21 12:05 | 46.91191 | -1.58580 | 26278 ft | 452 kts | 354° |
| 2026-04-21 12:05 | 46.94379 | -1.58718 | 26046 ft | 453 kts | 354° |
| 2026-04-21 12:05 | 46.97525 | -1.58872 | 25814 ft | 453 kts | 354° |
| 2026-04-21 12:05 | 47.00682 | -1.59028 | 25930 ft | 455 kts | 354° |
| 2026-04-21 12:06 | 47.03765 | -1.59180 | 26063 ft | 438 kts | 354° |
| 2026-04-21 12:06 | 47.06744 | -1.59328 | 26075 ft | 419 kts | 353° |
| 2026-04-21 12:06 | 47.09625 | -1.59472 | 26078 ft | 401 kts | 353° |
| 2026-04-21 12:06 | 47.12333 | -1.59608 | 26085 ft | 393 kts | 353° |
| 2026-04-21 12:07 | 47.15067 | -1.59745 | 26057 ft | 393 kts | 353° |
| 2026-04-21 12:07 | 47.17804 | -1.59881 | 26054 ft | 393 kts | 353° |
| 2026-04-21 12:07 | 47.20525 | -1.60017 | 26053 ft | 392 kts | 353° |
| 2026-04-21 12:07 | 47.23253 | -1.60154 | 26054 ft | 392 kts | 353° |
| 2026-04-21 12:08 | 47.25989 | -1.60291 | 26051 ft | 392 kts | 353° |
| 2026-04-21 12:08 | 47.28709 | -1.60427 | 26053 ft | 392 kts | 353° |
| 2026-04-21 12:08 | 47.31442 | -1.60564 | 26056 ft | 392 kts | 353° |
| 2026-04-21 12:08 | 47.34174 | -1.60702 | 26055 ft | 392 kts | 353° |
| 2026-04-21 12:09 | 47.36897 | -1.60838 | 26058 ft | 392 kts | 353° |
| 2026-04-21 12:09 | 47.39621 | -1.60975 | 26061 ft | 392 kts | 353° |
| 2026-04-21 12:09 | 47.42349 | -1.61113 | 26061 ft | 391 kts | 353° |
| 2026-04-21 12:09 | 47.45066 | -1.61250 | 26067 ft | 391 kts | 353° |
| 2026-04-21 12:10 | 47.47756 | -1.61386 | 26069 ft | 391 kts | 353° |
| 2026-04-21 12:10 | 47.50472 | -1.61524 | 26076 ft | 391 kts | 353° |
| 2026-04-21 12:10 | 47.52306 | -1.61617 | 26076 ft | 391 kts | 353° |
| 2026-04-21 12:10 | 47.55910 | -1.61799 | 26084 ft | 391 kts | 353° |
| 2026-04-21 12:11 | 47.58622 | -1.61937 | 26079 ft | 391 kts | 353° |
| 2026-04-21 12:11 | 47.61340 | -1.62075 | 26083 ft | 391 kts | 353° |
| 2026-04-21 12:11 | 47.64055 | -1.62213 | 26087 ft | 391 kts | 353° |
| 2026-04-21 12:11 | 47.65896 | -1.62307 | 26086 ft | 390 kts | 353° |
| 2026-04-21 12:12 | 47.68605 | -1.62444 | 26096 ft | 390 kts | 353° |
| 2026-04-21 12:12 | 47.71314 | -1.62583 | 26089 ft | 390 kts | 353° |
| 2026-04-21 12:12 | 47.74906 | -1.62766 | 26094 ft | 390 kts | 353° |
| 2026-04-21 12:12 | 47.76747 | -1.62860 | 26098 ft | 390 kts | 353° |
| 2026-04-21 12:13 | 47.79424 | -1.62997 | 26100 ft | 390 kts | 353° |
| 2026-04-21 12:13 | 47.82140 | -1.63136 | 26103 ft | 390 kts | 353° |
| 2026-04-21 12:13 | 47.84845 | -1.63274 | 26100 ft | 390 kts | 353° |
| 2026-04-21 12:13 | 47.87562 | -1.63414 | 26103 ft | 390 kts | 353° |
| 2026-04-21 12:14 | 47.90269 | -1.63553 | 26100 ft | 390 kts | 353° |
| 2026-04-21 12:14 | 47.92977 | -1.63692 | 26105 ft | 390 kts | 353° |
| 2026-04-21 12:14 | 47.95683 | -1.63831 | 26106 ft | 390 kts | 353° |
| 2026-04-21 12:14 | 47.98389 | -1.63970 | 26106 ft | 389 kts | 353° |
| 2026-04-21 12:15 | 48.01101 | -1.64111 | 26101 ft | 390 kts | 353° |
| 2026-04-21 12:15 | 48.03812 | -1.64250 | 26105 ft | 389 kts | 353° |
| 2026-04-21 12:15 | 48.06515 | -1.64390 | 26100 ft | 389 kts | 353° |
| 2026-04-21 12:15 | 48.09232 | -1.64530 | 26103 ft | 389 kts | 353° |
| 2026-04-21 12:16 | 48.11930 | -1.64670 | 26102 ft | 389 kts | 353° |
| 2026-04-21 12:16 | 48.14637 | -1.64811 | 26104 ft | 389 kts | 353° |
| 2026-04-21 12:16 | 48.17344 | -1.64951 | 26107 ft | 389 kts | 353° |
| 2026-04-21 12:16 | 48.20052 | -1.65092 | 26109 ft | 389 kts | 353° |
| 2026-04-21 12:17 | 48.22763 | -1.65233 | 26108 ft | 389 kts | 353° |
| 2026-04-21 12:17 | 48.25472 | -1.65374 | 26114 ft | 389 kts | 353° |
| 2026-04-21 12:17 | 48.28169 | -1.65514 | 26115 ft | 389 kts | 353° |
| 2026-04-21 12:17 | 48.30877 | -1.65655 | 26121 ft | 389 kts | 353° |
| 2026-04-21 12:18 | 48.33585 | -1.65797 | 26120 ft | 389 kts | 353° |
| 2026-04-21 12:18 | 48.36292 | -1.65939 | 26127 ft | 389 kts | 353° |
| 2026-04-21 12:18 | 48.38990 | -1.66080 | 26128 ft | 389 kts | 353° |
| 2026-04-21 12:18 | 48.41694 | -1.66221 | 26134 ft | 389 kts | 353° |
| 2026-04-21 12:19 | 48.44402 | -1.66363 | 26135 ft | 389 kts | 353° |
| 2026-04-21 12:19 | 48.47067 | -1.66503 | 26134 ft | 389 kts | 353° |
| 2026-04-21 12:19 | 48.49799 | -1.66647 | 26141 ft | 389 kts | 353° |
| 2026-04-21 12:19 | 48.52468 | -1.66788 | 26137 ft | 388 kts | 353° |
| 2026-04-21 12:20 | 48.55175 | -1.66930 | 26137 ft | 388 kts | 353° |
| 2026-04-21 12:20 | 48.57869 | -1.67072 | 26138 ft | 388 kts | 353° |
| 2026-04-21 12:20 | 48.60569 | -1.67215 | 26137 ft | 388 kts | 353° |
| 2026-04-21 12:20 | 48.63268 | -1.67357 | 26140 ft | 388 kts | 353° |
| 2026-04-21 12:21 | 48.65967 | -1.67500 | 26142 ft | 388 kts | 353° |
| 2026-04-21 12:21 | 48.68664 | -1.67642 | 26144 ft | 388 kts | 353° |
| 2026-04-21 12:21 | 48.71361 | -1.67785 | 26144 ft | 388 kts | 353° |
| 2026-04-21 12:21 | 48.74054 | -1.67928 | 26147 ft | 388 kts | 353° |
| 2026-04-21 12:22 | 48.76745 | -1.68071 | 26151 ft | 387 kts | 353° |
| 2026-04-21 12:22 | 48.79442 | -1.68215 | 26153 ft | 387 kts | 352° |
| 2026-04-21 12:22 | 48.82131 | -1.68358 | 26156 ft | 387 kts | 352° |
| 2026-04-21 12:22 | 48.84826 | -1.68501 | 26159 ft | 387 kts | 352° |
| 2026-04-21 12:23 | 48.87521 | -1.68645 | 26157 ft | 387 kts | 352° |
| 2026-04-21 12:23 | 48.90206 | -1.68789 | 26163 ft | 387 kts | 352° |
| 2026-04-21 12:23 | 48.92865 | -1.68931 | 26165 ft | 387 kts | 352° |
| 2026-04-21 12:23 | 48.95585 | -1.69076 | 26170 ft | 387 kts | 352° |
| 2026-04-21 12:24 | 48.98245 | -1.69219 | 26167 ft | 387 kts | 352° |
| 2026-04-21 12:24 | 49.00932 | -1.69363 | 26168 ft | 387 kts | 352° |
| 2026-04-21 12:24 | 49.03636 | -1.69508 | 26176 ft | 387 kts | 352° |
| 2026-04-21 12:24 | 49.06313 | -1.69652 | 26170 ft | 387 kts | 352° |
| 2026-04-21 12:25 | 49.08974 | -1.69794 | 26127 ft | 375 kts | 352° |
| 2026-04-21 12:25 | 49.11530 | -1.69932 | 26075 ft | 360 kts | 352° |
| 2026-04-21 12:25 | 49.13989 | -1.70065 | 26020 ft | 346 kts | 352° |
| 2026-04-21 12:25 | 49.16344 | -1.70192 | 25963 ft | 332 kts | 352° |
| 2026-04-21 12:26 | 49.18611 | -1.70314 | 25912 ft | 320 kts | 351° |
| 2026-04-21 12:26 | 49.20812 | -1.70435 | 25840 ft | 320 kts | 351° |
| 2026-04-21 12:26 | 49.23071 | -1.70556 | 25723 ft | 328 kts | 352° |
| 2026-04-21 12:26 | 49.25371 | -1.70680 | 25521 ft | 332 kts | 352° |
| 2026-04-21 12:27 | 49.27693 | -1.70806 | 25215 ft | 332 kts | 352° |
| 2026-04-21 12:27 | 49.29990 | -1.70931 | 24898 ft | 330 kts | 352° |
| 2026-04-21 12:27 | 49.32287 | -1.71056 | 24581 ft | 329 kts | 352° |
| 2026-04-21 12:27 | 49.34561 | -1.71180 | 24274 ft | 328 kts | 352° |
| 2026-04-21 12:28 | 49.36837 | -1.71303 | 23971 ft | 326 kts | 352° |
| 2026-04-21 12:28 | 49.39101 | -1.71427 | 23642 ft | 325 kts | 352° |
| 2026-04-21 12:28 | 49.41354 | -1.71549 | 23274 ft | 323 kts | 352° |
| 2026-04-21 12:28 | 49.43603 | -1.71672 | 22911 ft | 322 kts | 352° |
| 2026-04-21 12:29 | 49.45838 | -1.71793 | 22562 ft | 320 kts | 352° |
| 2026-04-21 12:29 | 49.48054 | -1.71914 | 22215 ft | 319 kts | 352° |
| 2026-04-21 12:29 | 49.50268 | -1.72035 | 21865 ft | 317 kts | 352° |
| 2026-04-21 12:29 | 49.52467 | -1.72156 | 21520 ft | 315 kts | 353° |
| 2026-04-21 12:30 | 49.54646 | -1.72275 | 21185 ft | 314 kts | 353° |
| 2026-04-21 12:30 | 49.56823 | -1.72395 | 20850 ft | 312 kts | 353° |
| 2026-04-21 12:30 | 49.58992 | -1.72514 | 20519 ft | 310 kts | 353° |
| 2026-04-21 12:30 | 49.61097 | -1.72984 | 20196 ft | 304 kts | 343° |
| 2026-04-21 12:31 | 49.63164 | -1.73673 | 19892 ft | 303 kts | 345° |
| 2026-04-21 12:31 | 49.65198 | -1.74303 | 19563 ft | 301 kts | 345° |
| 2026-04-21 12:31 | 49.67275 | -1.74929 | 19251 ft | 300 kts | 346° |
| 2026-04-21 12:31 | 49.69323 | -1.75535 | 18942 ft | 299 kts | 346° |
| 2026-04-21 12:32 | 49.71359 | -1.76131 | 18647 ft | 297 kts | 346° |
| 2026-04-21 12:32 | 49.73353 | -1.76712 | 18317 ft | 295 kts | 346° |
| 2026-04-21 12:32 | 49.75363 | -1.77297 | 17965 ft | 293 kts | 347° |
| 2026-04-21 12:32 | 49.77359 | -1.77878 | 17622 ft | 291 kts | 347° |
| 2026-04-21 12:33 | 49.79360 | -1.78461 | 17279 ft | 289 kts | 347° |
| 2026-04-21 12:33 | 49.81315 | -1.79030 | 16918 ft | 289 kts | 347° |
| 2026-04-21 12:33 | 49.83276 | -1.79601 | 16599 ft | 286 kts | 347° |
| 2026-04-21 12:33 | 49.85220 | -1.80168 | 16271 ft | 284 kts | 347° |
| 2026-04-21 12:34 | 49.87166 | -1.80736 | 15963 ft | 283 kts | 347° |
| 2026-04-21 12:34 | 49.89097 | -1.81301 | 15673 ft | 282 kts | 347° |
| 2026-04-21 12:34 | 49.91017 | -1.81862 | 15366 ft | 281 kts | 347° |
| 2026-04-21 12:34 | 49.92936 | -1.82422 | 15071 ft | 280 kts | 347° |
| 2026-04-21 12:35 | 49.94844 | -1.82982 | 14780 ft | 279 kts | 347° |
| 2026-04-21 12:35 | 49.96744 | -1.83538 | 14493 ft | 278 kts | 348° |
| 2026-04-21 12:35 | 49.98643 | -1.84094 | 14206 ft | 277 kts | 348° |
| 2026-04-21 12:35 | 50.00554 | -1.84422 | 13886 ft | 278 kts | 1° |
| 2026-04-21 12:36 | 50.02480 | -1.84169 | 13567 ft | 278 kts | 3° |
| 2026-04-21 12:36 | 50.04409 | -1.83907 | 13254 ft | 277 kts | 4° |
| 2026-04-21 12:36 | 50.06322 | -1.83649 | 13003 ft | 275 kts | 4° |
| 2026-04-21 12:36 | 50.08234 | -1.83390 | 12739 ft | 274 kts | 4° |
| 2026-04-21 12:37 | 50.10132 | -1.83135 | 12508 ft | 274 kts | 4° |
| 2026-04-21 12:37 | 50.12005 | -1.82882 | 12266 ft | 273 kts | 4° |
| 2026-04-21 12:37 | 50.13897 | -1.82600 | 12012 ft | 273 kts | 9° |
| 2026-04-21 12:37 | 50.15720 | -1.81860 | 11774 ft | 270 kts | 16° |
| 2026-04-21 12:38 | 50.17500 | -1.81043 | 11536 ft | 265 kts | 16° |
| 2026-04-21 12:38 | 50.19252 | -1.80246 | 11295 ft | 260 kts | 16° |
| 2026-04-21 12:38 | 50.20992 | -1.79459 | 11056 ft | 259 kts | 17° |
| 2026-04-21 12:38 | 50.22728 | -1.78675 | 10820 ft | 259 kts | 17° |
| 2026-04-21 12:39 | 50.24459 | -1.77895 | 10591 ft | 259 kts | 17° |
| 2026-04-21 12:39 | 50.26187 | -1.77116 | 10358 ft | 258 kts | 17° |
| 2026-04-21 12:39 | 50.27913 | -1.76337 | 10119 ft | 258 kts | 18° |
| 2026-04-21 12:39 | 50.29629 | -1.75564 | 9867 ft | 257 kts | 18° |
| 2026-04-21 12:40 | 50.31347 | -1.74787 | 9609 ft | 255 kts | 18° |
| 2026-04-21 12:40 | 50.33044 | -1.74021 | 9349 ft | 254 kts | 19° |
| 2026-04-21 12:40 | 50.34736 | -1.73255 | 9091 ft | 253 kts | 19° |
| 2026-04-21 12:40 | 50.36425 | -1.72491 | 8830 ft | 252 kts | 19° |
| 2026-04-21 12:41 | 50.38104 | -1.71732 | 8607 ft | 250 kts | 19° |
| 2026-04-21 12:41 | 50.39772 | -1.70974 | 8350 ft | 249 kts | 20° |
| 2026-04-21 12:41 | 50.41427 | -1.70224 | 8107 ft | 248 kts | 20° |
| 2026-04-21 12:41 | 50.43081 | -1.69474 | 7866 ft | 246 kts | 20° |
| 2026-04-21 12:42 | 50.44726 | -1.68726 | 7623 ft | 246 kts | 20° |
| 2026-04-21 12:42 | 50.46344 | -1.67991 | 7379 ft | 245 kts | 20° |
| 2026-04-21 12:42 | 50.47971 | -1.67250 | 7150 ft | 244 kts | 20° |
| 2026-04-21 12:42 | 50.49595 | -1.66509 | 7001 ft | 240 kts | 22° |
| 2026-04-21 12:43 | 50.51126 | -1.65514 | 7005 ft | 239 kts | 29° |
| 2026-04-21 12:43 | 50.52646 | -1.64431 | 7001 ft | 239 kts | 28° |
| 2026-04-21 12:43 | 50.54167 | -1.63363 | 7001 ft | 240 kts | 28° |
| 2026-04-21 12:43 | 50.55697 | -1.62300 | 7002 ft | 240 kts | 28° |
| 2026-04-21 12:44 | 50.57218 | -1.61249 | 7001 ft | 240 kts | 28° |
| 2026-04-21 12:44 | 50.58748 | -1.60197 | 7001 ft | 240 kts | 28° |
| 2026-04-21 12:44 | 50.60279 | -1.59145 | 6991 ft | 240 kts | 28° |
| 2026-04-21 12:44 | 50.61813 | -1.58090 | 7006 ft | 240 kts | 28° |
| 2026-04-21 12:45 | 50.63323 | -1.57055 | 6976 ft | 230 kts | 28° |
| 2026-04-21 12:45 | 50.64771 | -1.56139 | 6863 ft | 224 kts | 18° |
| 2026-04-21 12:45 | 50.66347 | -1.56218 | 6528 ft | 235 kts | 346° |
| 2026-04-21 12:45 | 50.67728 | -1.57668 | 6080 ft | 249 kts | 313° |
| 2026-04-21 12:46 | 50.68659 | -1.60011 | 5713 ft | 252 kts | 303° |
| 2026-04-21 12:46 | 50.69541 | -1.62404 | 5369 ft | 253 kts | 303° |
| 2026-04-21 12:46 | 50.70438 | -1.64805 | 5019 ft | 254 kts | 304° |
| 2026-04-21 12:46 | 50.71338 | -1.67200 | 4644 ft | 254 kts | 304° |
| 2026-04-21 12:47 | 50.72229 | -1.69565 | 4275 ft | 247 kts | 304° |
| 2026-04-21 12:47 | 50.73091 | -1.71848 | 3954 ft | 238 kts | 304° |
| 2026-04-21 12:47 | 50.73936 | -1.74088 | 3699 ft | 234 kts | 304° |
| 2026-04-21 12:47 | 50.74757 | -1.76264 | 3429 ft | 233 kts | 304° |
| 2026-04-21 12:48 | 50.75601 | -1.78498 | 3114 ft | 233 kts | 305° |
| 2026-04-21 12:48 | 50.76700 | -1.80269 | 2778 ft | 224 kts | 339° |
| 2026-04-21 12:48 | 50.78142 | -1.80611 | 2489 ft | 208 kts | 17° |
| 2026-04-21 12:48 | 50.79386 | -1.79627 | 2220 ft | 198 kts | 46° |
| 2026-04-21 12:49 | 50.80238 | -1.77993 | 2059 ft | 190 kts | 56° |
| 2026-04-21 12:49 | 50.81011 | -1.76341 | 1904 ft | 182 kts | 57° |
| 2026-04-21 12:49 | 50.81709 | -1.74810 | 1785 ft | 162 kts | 57° |
| 2026-04-21 12:49 | 50.82334 | -1.73402 | 1657 ft | 152 kts | 57° |
| 2026-04-21 12:50 | 50.82939 | -1.72033 | 1536 ft | 152 kts | 58° |
| 2026-04-21 12:50 | 50.83528 | -1.70678 | 1469 ft | 151 kts | 58° |
| 2026-04-21 12:50 | 50.84121 | -1.69307 | 1516 ft | 152 kts | 58° |
| 2026-04-21 12:50 | 50.84719 | -1.67911 | 1498 ft | 152 kts | 58° |
| 2026-04-21 12:51 | 50.85306 | -1.66525 | 1485 ft | 152 kts | 61° |
| 2026-04-21 12:51 | 50.85572 | -1.64926 | 1475 ft | 151 kts | 90° |
| 2026-04-21 12:51 | 50.85104 | -1.63485 | 1479 ft | 160 kts | 138° |
| 2026-04-21 12:51 | 50.83998 | -1.63083 | 1509 ft | 177 kts | 187° |
| 2026-04-21 12:52 | 50.82903 | -1.64090 | 1554 ft | 188 kts | 214° |
| 2026-04-21 12:52 | 50.81835 | -1.65282 | 1537 ft | 189 kts | 210° |
| 2026-04-21 12:52 | 50.80941 | -1.66906 | 1447 ft | 206 kts | 248° |
| 2026-04-21 12:52 | 50.80538 | -1.69029 | 1511 ft | 199 kts | 255° |
| 2026-04-21 12:53 | 50.80187 | -1.71119 | 1502 ft | 194 kts | 256° |
| 2026-04-21 12:53 | 50.79861 | -1.73138 | 1304 ft | 181 kts | 255° |
| 2026-04-21 12:53 | 50.79556 | -1.74968 | 1081 ft | 165 kts | 254° |
| 2026-04-21 12:53 | 50.79274 | -1.76652 | 884 ft | 155 kts | 255° |
| 2026-04-21 12:54 | 50.78998 | -1.78292 | 649 ft | 153 kts | 256° |
| 2026-04-21 12:54 | 50.78730 | -1.79917 | 421 ft | 152 kts | 255° |
| 2026-04-21 12:54 | 50.78463 | -1.81525 | 227 ft | 153 kts | 255° |
| 2026-04-21 12:54 | 50.78196 | -1.83128 | 52 ft | 146 kts | 255° |
| 2026-04-21 12:55 | 50.78009 | -1.84283 | 46 ft | 32 kts | 256° |
| 2026-04-21 12:55 | 50.77959 | -1.84471 | 46 ft | 16 kts | 224° |
| 2026-04-21 12:55 | 50.77890 | -1.84430 | 48 ft | 12 kts | 117° |
| 2026-04-21 12:55 | 50.77847 | -1.84302 | 46 ft | 14 kts | 118° |
| 2026-04-21 12:56 | 50.77795 | -1.84158 | 48 ft | 12 kts | 120° |
| 2026-04-21 12:56 | 50.77748 | -1.84031 | 46 ft | 15 kts | 120° |
| 2026-04-21 12:56 | 50.77693 | -1.83884 | 48 ft | 17 kts | 126° |
| 2026-04-21 12:56 | 50.77630 | -1.83750 | 48 ft | 16 kts | 126° |
| 2026-04-21 12:57 | 50.77583 | -1.83624 | 48 ft | 14 kts | 100° |
| 2026-04-21 12:57 | 50.77621 | -1.83497 | 48 ft | 13 kts | 26° |
| 2026-04-21 12:57 | 50.77718 | -1.83463 | 48 ft | 12 kts | 12° |
| 2026-04-21 12:57 | 50.77784 | -1.83460 | 48 ft | 6 kts | 9° |
| 2026-04-21 12:58 | 50.77804 | -1.83415 | 48 ft | 4 kts | 83° |
| 2026-04-21 12:58 | 50.77805 | -1.83388 | 48 ft | 0 kts | 88° |